Time;durP1;ratioP1;P1;durP2;ratioP2;P2;SDS_P1;SDS_P2;PMS_P1;PMS_P2;Temp;Humidity;BMP_temperature;BMP_pressure;BME280_temperature;BME280_humidity;BME280_pressure;Samples;Min_cycle;Max_cycle;Signal;HPM_P1;HPM_P2
2023/09/19 00:01:08;;;;;;;2.42;0.70;;;;;;;;;;5024445;28;20037;-61
2023/09/19 00:03:37;;;;;;;1.92;0.73;;;;;;;;;;5023996;28;20111;-61
2023/09/19 00:06:04;;;;;;;0.90;0.57;;;;;;;;;;5024857;28;20071;-61
2023/09/19 00:08:30;;;;;;;0.73;0.40;;;;;;;;;;5025096;28;20089;-61
2023/09/19 00:11:04;;;;;;;2.00;0.68;;;;;;;;;;5025224;28;20079;-61
2023/09/19 00:13:30;;;;;;;1.48;0.60;;;;;;;;;;5024564;28;20505;-61
2023/09/19 00:15:58;;;;;;;2.72;0.73;;;;;;;;;;5024336;28;20080;-60
2023/09/19 00:18:28;;;;;;;1.85;0.60;;;;;;;;;;5024418;28;20127;-60
2023/09/19 00:20:57;;;;;;;3.00;0.70;;;;;;;;;;5025657;28;20107;-61
2023/09/19 00:23:24;;;;;;;1.98;0.85;;;;;;;;;;5024552;28;20186;-61
2023/09/19 00:25:50;;;;;;;1.45;0.80;;;;;;;;;;5024536;28;20052;-61
2023/09/19 00:28:18;;;;;;;2.78;1.05;;;;;;;;;;5024874;28;20041;-61
2023/09/19 00:30:44;;;;;;;2.97;0.98;;;;;;;;;;5023799;28;20073;-62
2023/09/19 00:33:15;;;;;;;1.08;0.60;;;;;;;;;;5025619;28;20041;-61
2023/09/19 00:35:47;;;;;;;2.97;0.73;;;;;;;;;;5022656;28;20068;-61
2023/09/19 00:38:15;;;;;;;2.80;1.17;;;;;;;;;;5022562;28;20124;-61
2023/09/19 00:40:44;;;;;;;2.03;0.80;;;;;;;;;;5024867;28;20099;-61
2023/09/19 00:43:10;;;;;;;2.88;1.05;;;;;;;;;;5024811;28;20122;-61
2023/09/19 00:45:38;;;;;;;2.83;1.35;;;;;;;;;;5024058;28;20050;-61
2023/09/19 00:48:08;;;;;;;3.47;1.60;;;;;;;;;;5024830;28;20049;-60
2023/09/19 00:50:35;;;;;;;1.98;1.15;;;;;;;;;;5021543;28;20720;-61
2023/09/19 00:53:01;;;;;;;5.70;1.48;;;;;;;;;;5024323;28;20049;-60
2023/09/19 00:55:32;;;;;;;3.83;1.83;;;;;;;;;;5024424;28;20045;-61
2023/09/19 00:57:58;;;;;;;2.13;1.20;;;;;;;;;;5023718;28;20581;-60
2023/09/19 01:00:24;;;;;;;2.30;0.95;;;;;;;;;;5023696;28;20120;-61
2023/09/19 01:02:51;;;;;;;3.17;1.00;;;;;;;;;;5023383;28;20045;-61
2023/09/19 01:05:18;;;;;;;1.42;0.60;;;;;;;;;;5024518;28;20049;-60
2023/09/19 01:07:44;;;;;;;2.72;1.20;;;;;;;;;;5022408;28;20049;-60
2023/09/19 01:10:14;;;;;;;1.90;1.00;;;;;;;;;;5024818;28;20077;-60
2023/09/19 01:12:43;;;;;;;2.55;0.88;;;;;;;;;;5024349;28;20227;-61
2023/09/19 01:15:33;;;;;;;2.53;1.00;;;;;;;;;;5024270;28;20532;-61
2023/09/19 01:18:12;;;;;;;3.20;1.00;;;;;;;;;;5019688;28;20184;-61
2023/09/19 01:20:57;;;;;;;1.98;0.88;;;;;;;;;;5024078;28;20058;-61
2023/09/19 01:23:41;;;;;;;3.50;1.40;;;;;;;;;;5024144;28;20052;-61
2023/09/19 01:26:08;;;;;;;1.95;1.27;;;;;;;;;;5023484;28;20041;-61
2023/09/19 01:28:41;;;;;;;1.75;1.00;;;;;;;;;;5022792;28;20051;-61
2023/09/19 01:31:10;;;;;;;0.85;0.40;;;;;;;;;;5024913;28;20049;-61
2023/09/19 01:33:59;;;;;;;1.27;0.75;;;;;;;;;;5022928;28;20103;-61
2023/09/19 01:36:25;;;;;;;7.10;1.15;;;;;;;;;;5024627;28;20037;-61
2023/09/19 01:38:52;;;;;;;1.45;0.85;;;;;;;;;;5023921;28;20044;-60
2023/09/19 01:41:22;;;;;;;1.92;1.00;;;;;;;;;;5023122;28;20125;-61
2023/09/19 01:43:50;;;;;;;1.38;0.80;;;;;;;;;;5023546;28;20414;-60
2023/09/19 01:46:25;;;;;;;2.08;0.85;;;;;;;;;;5024155;28;20727;-60
2023/09/19 01:49:03;;;;;;;1.45;0.80;;;;;;;;;;5023351;28;20152;-61
2023/09/19 01:51:46;;;;;;;1.75;0.85;;;;;;;;;;5023035;28;20045;-61
2023/09/19 01:54:13;;;;;;;3.47;1.20;;;;;;;;;;5024050;28;20044;-61
2023/09/19 01:56:44;;;;;;;2.55;1.13;;;;;;;;;;5022226;28;20496;-61
2023/09/19 01:59:13;;;;;;;2.70;1.45;;;;;;;;;;5024358;28;20045;-61
2023/09/19 02:01:40;;;;;;;2.67;1.00;;;;;;;;;;5025934;28;20513;-61
2023/09/19 02:04:06;;;;;;;2.80;1.20;;;;;;;;;;5023541;28;20033;-61
2023/09/19 02:06:33;;;;;;;3.10;1.08;;;;;;;;;;5023446;28;20481;-61
2023/09/19 02:08:59;;;;;;;2.92;0.73;;;;;;;;;;5023014;28;20053;-61
2023/09/19 02:11:26;;;;;;;3.08;1.30;;;;;;;;;;5022664;28;20038;-61
2023/09/19 02:13:54;;;;;;;2.55;1.60;;;;;;;;;;5023629;28;20042;-61
2023/09/19 02:16:20;;;;;;;2.97;1.20;;;;;;;;;;5023438;28;20395;-61
2023/09/19 02:18:49;;;;;;;2.47;0.98;;;;;;;;;;5023531;28;20046;-60
2023/09/19 02:21:15;;;;;;;1.30;1.15;;;;;;;;;;5023179;28;20640;-61
2023/09/19 02:23:41;;;;;;;1.15;0.65;;;;;;;;;;5022678;28;20124;-61
2023/09/19 02:26:07;;;;;;;1.67;1.08;;;;;;;;;;5023567;28;20187;-61
2023/09/19 02:28:34;;;;;;;3.03;1.08;;;;;;;;;;5023110;28;20124;-61
2023/09/19 02:31:00;;;;;;;1.08;0.80;;;;;;;;;;5026547;28;20041;-60
2023/09/19 02:33:26;;;;;;;2.20;1.00;;;;;;;;;;5022562;28;20053;-61
2023/09/19 02:35:57;;;;;;;2.85;1.48;;;;;;;;;;5021380;28;20033;-60
2023/09/19 02:38:25;;;;;;;5.10;1.42;;;;;;;;;;5023636;28;20112;-60
2023/09/19 02:40:51;;;;;;;1.60;0.70;;;;;;;;;;5026303;28;20064;-61
2023/09/19 02:43:18;;;;;;;3.35;1.05;;;;;;;;;;5027198;28;20041;-60
2023/09/19 02:45:46;;;;;;;3.75;1.25;;;;;;;;;;5023989;28;20064;-61
2023/09/19 02:48:12;;;;;;;1.20;0.80;;;;;;;;;;5026294;28;20077;-59
2023/09/19 02:50:40;;;;;;;1.40;0.73;;;;;;;;;;5025822;28;20259;-61
2023/09/19 02:53:06;;;;;;;2.53;0.90;;;;;;;;;;5026529;28;20041;-60
2023/09/19 02:55:33;;;;;;;2.70;0.90;;;;;;;;;;5026480;28;20056;-61
2023/09/19 02:58:01;;;;;;;2.63;0.90;;;;;;;;;;5026294;28;20049;-61
2023/09/19 03:00:27;;;;;;;1.50;0.88;;;;;;;;;;5025699;28;20060;-60
2023/09/19 03:02:54;;;;;;;5.68;1.00;;;;;;;;;;5026824;28;20037;-61
2023/09/19 03:05:20;;;;;;;1.98;1.02;;;;;;;;;;5026375;28;20613;-60
2023/09/19 03:07:50;;;;;;;2.42;1.17;;;;;;;;;;5026640;28;20049;-61
2023/09/19 03:10:16;;;;;;;2.42;1.10;;;;;;;;;;5026524;28;20057;-61
2023/09/19 03:12:42;;;;;;;2.67;1.13;;;;;;;;;;5026631;28;20045;-61
2023/09/19 03:15:08;;;;;;;2.05;1.08;;;;;;;;;;5024660;28;20048;-61
2023/09/19 03:17:35;;;;;;;1.42;0.60;;;;;;;;;;5026035;28;20332;-60
2023/09/19 03:20:01;;;;;;;3.17;0.80;;;;;;;;;;5025530;28;20041;-61
2023/09/19 03:22:28;;;;;;;0.98;0.40;;;;;;;;;;5025878;28;20046;-61
2023/09/19 03:24:54;;;;;;;0.85;0.38;;;;;;;;;;5026662;28;20227;-60
2023/09/19 03:27:20;;;;;;;0.32;0.30;;;;;;;;;;5025878;28;20048;-60
2023/09/19 03:29:47;;;;;;;0.90;0.43;;;;;;;;;;5026390;28;20041;-61
2023/09/19 03:32:13;;;;;;;0.75;0.50;;;;;;;;;;5024162;28;20056;-61
2023/09/19 03:34:43;;;;;;;1.02;0.38;;;;;;;;;;5025794;28;20041;-61
2023/09/19 03:37:09;;;;;;;0.50;0.32;;;;;;;;;;5026043;28;20076;-61
2023/09/19 03:39:35;;;;;;;0.63;0.32;;;;;;;;;;5026823;28;20188;-61
2023/09/19 03:42:06;;;;;;;0.60;0.30;;;;;;;;;;5025872;28;20578;-60
2023/09/19 03:44:33;;;;;;;1.10;0.50;;;;;;;;;;5025804;28;20618;-61
2023/09/19 03:46:59;;;;;;;0.88;0.38;;;;;;;;;;5026433;28;20072;-60
2023/09/19 03:49:25;;;;;;;0.93;0.50;;;;;;;;;;5024798;28;20056;-60
2023/09/19 03:51:51;;;;;;;1.02;0.55;;;;;;;;;;5025985;28;20048;-61
2023/09/19 03:54:19;;;;;;;1.65;0.45;;;;;;;;;;5025147;28;20048;-61
2023/09/19 03:56:45;;;;;;;1.35;0.50;;;;;;;;;;5025683;28;20037;-61
2023/09/19 03:59:12;;;;;;;1.08;0.52;;;;;;;;;;5026015;28;20120;-60
2023/09/19 04:01:38;;;;;;;2.03;0.70;;;;;;;;;;5023480;28;20049;-60
2023/09/19 04:04:08;;;;;;;1.00;0.50;;;;;;;;;;5025720;28;20060;-61
2023/09/19 04:06:37;;;;;;;0.60;0.47;;;;;;;;;;5025206;28;20044;-61
2023/09/19 04:09:04;;;;;;;1.45;0.47;;;;;;;;;;5025669;28;20037;-60
2023/09/19 04:11:33;;;;;;;2.85;0.90;;;;;;;;;;5025295;28;20053;-60
2023/09/19 04:13:59;;;;;;;0.82;0.57;;;;;;;;;;5026345;28;20102;-60
2023/09/19 04:16:25;;;;;;;0.88;0.57;;;;;;;;;;5024750;28;20045;-60
2023/09/19 04:18:51;;;;;;;1.77;0.88;;;;;;;;;;5025455;28;20040;-61
2023/09/19 04:21:17;;;;;;;1.05;0.52;;;;;;;;;;5025312;28;20053;-61
2023/09/19 04:23:43;;;;;;;3.92;1.17;;;;;;;;;;5025304;28;20052;-61
2023/09/19 04:26:09;;;;;;;1.73;0.77;;;;;;;;;;5025055;28;20080;-60
2023/09/19 04:28:38;;;;;;;1.20;0.57;;;;;;;;;;5024637;28;20272;-60
2023/09/19 04:31:04;;;;;;;1.00;0.63;;;;;;;;;;5024187;28;20084;-60
2023/09/19 04:33:30;;;;;;;0.65;0.35;;;;;;;;;;5023854;28;20466;-61
2023/09/19 04:35:56;;;;;;;3.00;0.45;;;;;;;;;;5024080;28;20048;-60
2023/09/19 04:38:23;;;;;;;3.75;0.80;;;;;;;;;;5024480;28;20037;-61
2023/09/19 04:40:49;;;;;;;0.65;0.50;;;;;;;;;;5024743;28;20041;-60
2023/09/19 04:43:15;;;;;;;1.33;0.77;;;;;;;;;;5024184;28;20055;-61
2023/09/19 04:45:41;;;;;;;1.90;0.60;;;;;;;;;;5024809;28;20038;-60
2023/09/19 04:48:08;;;;;;;2.00;0.75;;;;;;;;;;5024641;28;20749;-61
2023/09/19 04:50:34;;;;;;;1.90;0.88;;;;;;;;;;5024409;28;20593;-60
2023/09/19 04:53:01;;;;;;;2.85;0.88;;;;;;;;;;5024012;28;20148;-60
2023/09/19 04:55:27;;;;;;;3.28;1.00;;;;;;;;;;5024530;28;20044;-61
2023/09/19 04:57:53;;;;;;;0.95;0.77;;;;;;;;;;5023697;28;20042;-60
2023/09/19 05:00:27;;;;;;;1.65;0.70;;;;;;;;;;5022355;28;20049;-61
2023/09/19 05:02:56;;;;;;;1.90;0.65;;;;;;;;;;5023822;28;20045;-61
2023/09/19 05:05:23;;;;;;;2.40;0.77;;;;;;;;;;5023311;28;20045;-61
2023/09/19 05:07:50;;;;;;;4.45;1.17;;;;;;;;;;5024572;28;20174;-61
2023/09/19 05:10:18;;;;;;;1.95;0.68;;;;;;;;;;5024602;28;20057;-60
2023/09/19 05:12:48;;;;;;;1.95;1.23;;;;;;;;;;5024631;28;20041;-61
2023/09/19 05:15:17;;;;;;;1.85;1.10;;;;;;;;;;5024524;28;20585;-60
2023/09/19 05:17:50;;;;;;;1.52;0.88;;;;;;;;;;5024928;28;20127;-61
2023/09/19 05:20:16;;;;;;;3.10;0.90;;;;;;;;;;5023535;28;20049;-60
2023/09/19 05:22:43;;;;;;;3.72;1.52;;;;;;;;;;5024631;28;20041;-60
2023/09/19 05:25:10;;;;;;;4.07;1.20;;;;;;;;;;5025109;28;20076;-60
2023/09/19 05:27:36;;;;;;;3.38;1.02;;;;;;;;;;5023356;28;20526;-61
2023/09/19 05:30:02;;;;;;;3.03;0.70;;;;;;;;;;5024672;28;20553;-60
2023/09/19 05:32:28;;;;;;;1.27;0.85;;;;;;;;;;5023162;28;20088;-60
2023/09/19 05:34:56;;;;;;;0.63;0.47;;;;;;;;;;5022373;28;20096;-60
2023/09/19 05:37:23;;;;;;;1.90;0.90;;;;;;;;;;5024146;28;20474;-60
2023/09/19 05:39:49;;;;;;;2.25;1.10;;;;;;;;;;5024092;28;20052;-60
2023/09/19 05:42:15;;;;;;;1.80;1.00;;;;;;;;;;5023911;28;20060;-61
2023/09/19 05:44:41;;;;;;;3.22;0.80;;;;;;;;;;5024384;28;20041;-60
2023/09/19 05:47:08;;;;;;;2.10;0.95;;;;;;;;;;5021670;28;20052;-60
2023/09/19 05:49:38;;;;;;;1.80;0.95;;;;;;;;;;5023619;28;20057;-61
2023/09/19 05:52:05;;;;;;;2.78;0.63;;;;;;;;;;5022408;28;20038;-60
2023/09/19 05:54:30;;;;;;;0.52;0.30;;;;;;;;;;5021818;28;20369;-60
2023/09/19 05:56:57;;;;;;;1.48;0.50;;;;;;;;;;5024027;28;20038;-60
2023/09/19 05:59:24;;;;;;;2.22;0.68;;;;;;;;;;5023844;28;20049;-60
2023/09/19 06:01:52;;;;;;;1.77;0.70;;;;;;;;;;5021036;28;20073;-60
2023/09/19 06:04:19;;;;;;;2.90;0.68;;;;;;;;;;5021571;28;20627;-60
2023/09/19 06:06:45;;;;;;;1.60;0.80;;;;;;;;;;5024466;28;20041;-60
2023/09/19 06:09:11;;;;;;;1.20;0.82;;;;;;;;;;5021095;28;20116;-60
2023/09/19 06:11:37;;;;;;;1.27;0.70;;;;;;;;;;5024443;28;20037;-60
2023/09/19 06:14:03;;;;;;;1.38;0.80;;;;;;;;;;5027018;28;20405;-61
2023/09/19 06:16:30;;;;;;;1.55;0.70;;;;;;;;;;5027069;28;20048;-61
2023/09/19 06:18:56;;;;;;;1.55;0.73;;;;;;;;;;5028154;28;20044;-61
2023/09/19 06:21:23;;;;;;;1.15;0.57;;;;;;;;;;5027573;28;20049;-61
2023/09/19 06:23:49;;;;;;;1.58;0.80;;;;;;;;;;5026942;28;20053;-61
2023/09/19 06:26:15;;;;;;;2.55;0.65;;;;;;;;;;5028703;28;20041;-61
2023/09/19 06:28:42;;;;;;;1.00;0.65;;;;;;;;;;5026707;28;20454;-61
2023/09/19 06:31:09;;;;;;;2.38;1.20;;;;;;;;;;5019822;28;20520;-60
2023/09/19 06:33:39;;;;;;;1.73;0.77;;;;;;;;;;5025883;28;20049;-61
2023/09/19 06:36:06;;;;;;;3.08;1.00;;;;;;;;;;5028136;28;20080;-61
2023/09/19 06:38:34;;;;;;;2.75;0.90;;;;;;;;;;5026782;28;20067;-61
2023/09/19 06:41:01;;;;;;;2.92;1.05;;;;;;;;;;5025997;28;20505;-61
2023/09/19 06:43:30;;;;;;;5.35;1.60;;;;;;;;;;5026558;28;20410;-61
2023/09/19 06:45:57;;;;;;;4.38;1.20;;;;;;;;;;5027339;28;20132;-61
2023/09/19 06:48:24;;;;;;;1.38;0.82;;;;;;;;;;5027092;28;20053;-61
2023/09/19 06:50:51;;;;;;;3.30;0.93;;;;;;;;;;5026700;28;20046;-60
2023/09/19 06:53:17;;;;;;;0.95;0.65;;;;;;;;;;5027219;28;20429;-60
2023/09/19 06:55:45;;;;;;;2.50;0.70;;;;;;;;;;5026226;28;20037;-61
2023/09/19 06:58:11;;;;;;;3.00;1.10;;;;;;;;;;5026265;28;20102;-60
2023/09/19 07:00:38;;;;;;;2.85;1.25;;;;;;;;;;5021963;28;20037;-60
2023/09/19 07:03:07;;;;;;;3.08;1.40;;;;;;;;;;5024917;28;20091;-61
2023/09/19 07:05:37;;;;;;;2.63;1.25;;;;;;;;;;5022600;28;20481;-61
2023/09/19 07:08:03;;;;;;;3.15;1.10;;;;;;;;;;5028457;28;20053;-61
2023/09/19 07:10:30;;;;;;;3.70;0.98;;;;;;;;;;5027476;28;20049;-61
2023/09/19 07:13:03;;;;;;;3.55;1.00;;;;;;;;;;5027651;28;20033;-60
2023/09/19 07:15:38;;;;;;;3.28;1.27;;;;;;;;;;5027584;28;20099;-61
2023/09/19 07:18:05;;;;;;;6.07;1.75;;;;;;;;;;5018843;28;20041;-61
2023/09/19 07:20:32;;;;;;;2.80;1.23;;;;;;;;;;5027369;28;20049;-58
2023/09/19 07:23:01;;;;;;;4.10;1.65;;;;;;;;;;5028285;28;20668;-60
2023/09/19 07:25:30;;;;;;;4.63;1.55;;;;;;;;;;5027369;28;20038;-61
2023/09/19 07:27:59;;;;;;;4.65;1.48;;;;;;;;;;5019942;28;20103;-62
2023/09/19 07:30:26;;;;;;;3.05;1.20;;;;;;;;;;5028207;28;20549;-63
2023/09/19 07:32:52;;;;;;;2.92;1.20;;;;;;;;;;5026309;28;20084;-61
2023/09/19 07:35:21;;;;;;;3.95;1.38;;;;;;;;;;5026055;28;20156;-61
2023/09/19 07:37:56;;;;;;;3.13;1.33;;;;;;;;;;5025890;28;20037;-61
2023/09/19 07:40:23;;;;;;;5.75;1.50;;;;;;;;;;5026361;28;20038;-61
2023/09/19 07:42:50;;;;;;;5.85;1.83;;;;;;;;;;5027201;28;20464;-61
2023/09/19 07:45:19;;;;;;;6.15;2.40;;;;;;;;;;5027559;28;20501;-61
2023/09/19 07:47:46;;;;;;;3.85;1.40;;;;;;;;;;5021716;28;20517;-61
2023/09/19 07:50:13;;;;;;;7.82;1.67;;;;;;;;;;5026857;28;20033;-61
2023/09/19 07:52:42;;;;;;;4.55;1.67;;;;;;;;;;5026899;28;20041;-61
2023/09/19 07:55:09;;;;;;;6.07;1.73;;;;;;;;;;5026864;28;20610;-61
2023/09/19 07:57:35;;;;;;;3.90;1.42;;;;;;;;;;5026725;28;20095;-61
2023/09/19 08:00:04;;;;;;;7.07;1.85;;;;;;;;;;5026940;28;20033;-61
2023/09/19 08:02:30;;;;;;;5.43;1.52;;;;;;;;;;5024205;28;20050;-61
2023/09/19 08:04:58;;;;;;;5.93;1.65;;;;;;;;;;5025926;28;20437;-61
2023/09/19 08:07:24;;;;;;;4.38;1.88;;;;;;;;;;5026241;28;20521;-61
2023/09/19 08:09:50;;;;;;;3.67;1.80;;;;;;;;;;5025953;28;20084;-62
2023/09/19 08:12:16;;;;;;;5.63;1.80;;;;;;;;;;5027061;28;20037;-61
2023/09/19 08:14:43;;;;;;;5.13;1.73;;;;;;;;;;5026613;28;20465;-61
2023/09/19 08:17:09;;;;;;;6.10;1.73;;;;;;;;;;5026231;28;20037;-61
2023/09/19 08:19:36;;;;;;;4.63;1.52;;;;;;;;;;5026111;28;20041;-61
2023/09/19 08:22:02;;;;;;;2.53;1.25;;;;;;;;;;5025863;28;20045;-61
2023/09/19 08:24:29;;;;;;;6.82;1.83;;;;;;;;;;5024839;28;20490;-61
2023/09/19 08:26:56;;;;;;;4.78;1.52;;;;;;;;;;5019627;28;20048;-61
2023/09/19 08:29:27;;;;;;;4.18;1.92;;;;;;;;;;5025364;28;20053;-62
2023/09/19 08:31:57;;;;;;;4.53;1.90;;;;;;;;;;5026385;28;20056;-61
2023/09/19 08:34:23;;;;;;;8.90;2.08;;;;;;;;;;5025727;28;20711;-63
2023/09/19 08:36:56;;;;;;;3.85;1.92;;;;;;;;;;5023004;28;20049;-62
2023/09/19 08:39:22;;;;;;;2.67;1.40;;;;;;;;;;5025751;28;20056;-61
2023/09/19 08:41:48;;;;;;;4.70;1.88;;;;;;;;;;5026271;28;20037;-61
2023/09/19 08:44:14;;;;;;;7.07;2.55;;;;;;;;;;5025998;28;20521;-61
2023/09/19 08:46:42;;;;;;;5.97;2.20;;;;;;;;;;5025255;28;20378;-61
2023/09/19 08:49:22;;;;;;;6.78;1.88;;;;;;;;;;5025602;28;20516;-61
2023/09/19 08:51:53;;;;;;;5.45;1.92;;;;;;;;;;5025663;28;20049;-61
2023/09/19 08:54:26;;;;;;;8.38;2.17;;;;;;;;;;5025314;28;20065;-61
2023/09/19 08:57:02;;;;;;;2.67;1.30;;;;;;;;;;5082219;28;20976;-61
2023/09/19 08:59:29;;;;;;;2.70;1.20;;;;;;;;;;5065253;28;20063;-60
2023/09/19 09:01:55;;;;;;;6.70;1.75;;;;;;;;;;5066998;28;20109;-61
2023/09/19 09:04:22;;;;;;;4.75;1.65;;;;;;;;;;5069847;28;20063;-61
2023/09/19 09:06:53;;;;;;;4.43;1.90;;;;;;;;;;5066013;28;20076;-61
2023/09/19 09:09:19;;;;;;;4.15;1.42;;;;;;;;;;5063375;28;20055;-61
2023/09/19 09:11:45;;;;;;;5.05;2.10;;;;;;;;;;5061974;28;20118;-61
2023/09/19 09:14:12;;;;;;;5.57;1.85;;;;;;;;;;5065821;28;20053;-61
2023/09/19 09:16:38;;;;;;;2.70;1.58;;;;;;;;;;5065308;28;20040;-62
2023/09/19 09:19:05;;;;;;;5.80;1.88;;;;;;;;;;5059998;28;20136;-61
2023/09/19 09:21:35;;;;;;;3.78;1.08;;;;;;;;;;5061748;28;20072;-61
2023/09/19 09:24:24;;;;;;;6.00;2.08;;;;;;;;;;5067283;28;20055;-61
2023/09/19 09:26:50;;;;;;;5.82;2.40;;;;;;;;;;5066464;28;20040;-62
2023/09/19 09:29:18;;;;;;;7.40;2.17;;;;;;;;;;5062252;28;20041;-60
2023/09/19 09:31:44;;;;;;;4.95;2.00;;;;;;;;;;5061939;28;20463;-61
2023/09/19 09:34:13;;;;;;;4.05;1.88;;;;;;;;;;5062422;28;20133;-62
2023/09/19 09:36:41;;;;;;;5.10;2.10;;;;;;;;;;5063754;28;20431;-61
2023/09/19 09:39:24;;;;;;;5.70;1.95;;;;;;;;;;5064573;28;20047;-62
2023/09/19 09:41:51;;;;;;;5.57;2.33;;;;;;;;;;5064171;28;20055;-62
2023/09/19 09:44:18;;;;;;;7.03;2.60;;;;;;;;;;5065610;28;20037;-61
2023/09/19 09:49:37;;;;;;;6.80;1.83;;;;;;;;;;5058529;28;20546;-61
2023/09/19 09:52:07;;;;;;;4.65;2.17;;;;;;;;;;5066884;28;20048;-61
2023/09/19 09:54:36;;;;;;;9.52;2.55;;;;;;;;;;5060879;28;20688;-61
2023/09/19 09:57:21;;;;;;;5.45;2.13;;;;;;;;;;5060463;28;20484;-61
2023/09/19 09:59:55;;;;;;;6.13;2.17;;;;;;;;;;5069395;28;20530;-61
2023/09/19 10:02:25;;;;;;;6.20;2.45;;;;;;;;;;5060714;28;20057;-61
2023/09/19 10:08:08;;;;;;;6.20;2.15;;;;;;;;;;5048456;28;20061;-61
2023/09/19 10:10:44;;;;;;;5.35;2.65;;;;;;;;;;5046045;28;20053;-60
2023/09/19 10:13:15;;;;;;;8.27;2.55;;;;;;;;;;5041687;28;20469;-61
2023/09/19 10:15:50;;;;;;;10.30;3.00;;;;;;;;;;5046306;28;20044;-61
2023/09/19 10:18:27;;;;;;;2.35;1.48;;;;;;;;;;5047406;28;20338;-61
2023/09/19 10:20:54;;;;;;;7.82;2.45;;;;;;;;;;5039327;28;20053;-61
2023/09/19 10:23:23;;;;;;;9.38;1.98;;;;;;;;;;5046065;28;20045;-61
2023/09/19 10:25:49;;;;;;;11.00;2.25;;;;;;;;;;5046240;28;20057;-61
2023/09/19 10:28:21;;;;;;;5.70;1.85;;;;;;;;;;5045549;28;20561;-60
2023/09/19 10:30:49;;;;;;;5.95;2.78;;;;;;;;;;5044935;28;20047;-61
2023/09/19 10:33:16;;;;;;;5.95;2.03;;;;;;;;;;5045520;28;20085;-61
2023/09/19 10:35:46;;;;;;;11.23;3.03;;;;;;;;;;5044310;28;20065;-61
2023/09/19 10:38:14;;;;;;;4.75;2.15;;;;;;;;;;5045054;28;20461;-61
2023/09/19 10:40:43;;;;;;;7.55;2.67;;;;;;;;;;5045079;28;20304;-61
2023/09/19 10:43:11;;;;;;;7.32;3.13;;;;;;;;;;5037745;28;20182;-61
2023/09/19 10:45:39;;;;;;;8.40;2.55;;;;;;;;;;5047658;28;20086;-61
2023/09/19 10:48:07;;;;;;;7.50;3.30;;;;;;;;;;5047208;28;20120;-61
2023/09/19 10:50:54;;;;;;;7.82;2.42;;;;;;;;;;5046801;28;20091;-61
2023/09/19 10:53:22;;;;;;;8.60;2.83;;;;;;;;;;5032261;28;20160;-61
2023/09/19 10:55:51;;;;;;;6.15;2.20;;;;;;;;;;5047679;28;20061;-60
2023/09/19 10:58:26;;;;;;;5.13;1.90;;;;;;;;;;5047021;28;20049;-60
2023/09/19 11:01:02;;;;;;;11.40;2.95;;;;;;;;;;5047348;28;20056;-61
2023/09/19 11:03:32;;;;;;;12.77;2.72;;;;;;;;;;5047119;28;20044;-61
2023/09/19 11:06:05;;;;;;;7.25;2.88;;;;;;;;;;5046943;28;20052;-61
2023/09/19 11:08:32;;;;;;;10.77;2.55;;;;;;;;;;5047134;28;20049;-61
2023/09/19 11:10:59;;;;;;;11.63;3.25;;;;;;;;;;5046469;28;20556;-61
2023/09/19 11:13:30;;;;;;;7.28;2.85;;;;;;;;;;5046891;28;20649;-61
2023/09/19 11:16:00;;;;;;;7.95;2.65;;;;;;;;;;5046992;28;20076;-61
2023/09/19 11:18:42;;;;;;;9.30;2.53;;;;;;;;;;5045045;28;20076;-61
2023/09/19 11:21:31;;;;;;;7.30;2.87;;;;;;;;;;5047241;28;20064;-61
2023/09/19 11:24:09;;;;;;;12.38;3.13;;;;;;;;;;5039758;28;20079;-60
2023/09/19 11:26:47;;;;;;;8.02;2.55;;;;;;;;;;5046193;28;20492;-61
2023/09/19 11:29:26;;;;;;;9.10;2.70;;;;;;;;;;5046984;28;20048;-61
2023/09/19 11:31:56;;;;;;;8.30;2.90;;;;;;;;;;5046038;28;20040;-61
2023/09/19 11:34:41;;;;;;;9.43;3.08;;;;;;;;;;5046787;28;20037;-62
2023/09/19 11:37:11;;;;;;;8.93;2.80;;;;;;;;;;5046552;28;20625;-61
2023/09/19 11:39:38;;;;;;;10.13;2.85;;;;;;;;;;5045696;28;20044;-61
2023/09/19 11:42:23;;;;;;;5.07;2.15;;;;;;;;;;5046586;28;20072;-61
2023/09/19 11:44:51;;;;;;;10.88;3.20;;;;;;;;;;5047033;28;20106;-61
2023/09/19 11:47:19;;;;;;;8.73;2.97;;;;;;;;;;5046368;28;20037;-61
2023/09/19 11:49:45;;;;;;;7.13;2.45;;;;;;;;;;5046359;28;20041;-61
2023/09/19 11:52:13;;;;;;;6.65;2.40;;;;;;;;;;5046374;28;20255;-61
2023/09/19 11:54:41;;;;;;;12.32;2.78;;;;;;;;;;5045764;28;20036;-61
2023/09/19 11:57:08;;;;;;;10.52;2.80;;;;;;;;;;5046343;28;20111;-60
2023/09/19 11:59:36;;;;;;;6.15;2.15;;;;;;;;;;5046076;28;20064;-61
2023/09/19 12:02:05;;;;;;;3.78;1.85;;;;;;;;;;5045884;28;20049;-61
2023/09/19 12:04:41;;;;;;;6.80;2.40;;;;;;;;;;5037709;28;20044;-61
2023/09/19 12:07:18;;;;;;;7.63;2.53;;;;;;;;;;5045979;28;20032;-62
2023/09/19 12:09:51;;;;;;;8.88;2.58;;;;;;;;;;5039008;28;20060;-61
2023/09/19 12:12:21;;;;;;;7.18;2.80;;;;;;;;;;5045678;28;20047;-61
2023/09/19 12:14:50;;;;;;;10.07;3.22;;;;;;;;;;5045936;28;20036;-61
2023/09/19 12:17:24;;;;;;;6.15;2.58;;;;;;;;;;5046379;28;20440;-61
2023/09/19 12:19:51;;;;;;;7.63;2.42;;;;;;;;;;5046380;28;20052;-61
2023/09/19 12:22:19;;;;;;;7.35;2.67;;;;;;;;;;5045612;28;20048;-61
2023/09/19 12:24:45;;;;;;;7.93;2.25;;;;;;;;;;5045807;28;20048;-61
2023/09/19 12:27:12;;;;;;;11.05;2.65;;;;;;;;;;5045743;28;20041;-61
2023/09/19 12:29:44;;;;;;;8.18;2.33;;;;;;;;;;5044576;28;20041;-61
2023/09/19 12:32:10;;;;;;;5.35;1.90;;;;;;;;;;5045776;28;20098;-61
2023/09/19 12:34:42;;;;;;;6.20;2.30;;;;;;;;;;5045628;28;20189;-61
2023/09/19 12:37:27;;;;;;;3.80;1.83;;;;;;;;;;5037711;28;20460;-61
2023/09/19 12:39:54;;;;;;;5.93;1.98;;;;;;;;;;5046501;28;20063;-61
2023/09/19 12:42:29;;;;;;;5.93;2.00;;;;;;;;;;5046892;28;20052;-60
2023/09/19 12:44:56;;;;;;;4.75;1.60;;;;;;;;;;5047113;28;20048;-61
2023/09/19 12:47:24;;;;;;;4.72;1.80;;;;;;;;;;5045600;28;20519;-61
2023/09/19 12:50:25;;;;;;;7.90;2.22;;;;;;;;;;5045181;28;20051;-60
2023/09/19 12:52:51;;;;;;;3.72;1.70;;;;;;;;;;5042503;28;20524;-61
2023/09/19 12:55:24;;;;;;;9.98;2.60;;;;;;;;;;5044482;28;20053;-61
2023/09/19 12:57:57;;;;;;;7.15;1.83;;;;;;;;;;5045876;28;20069;-61
2023/09/19 13:00:34;;;;;;;5.72;1.40;;;;;;;;;;5045711;28;20075;-60
2023/09/19 13:03:24;;;;;;;4.53;1.80;;;;;;;;;;5045683;28;20131;-61
2023/09/19 13:05:57;;;;;;;8.07;1.73;;;;;;;;;;5046108;28;20087;-61
2023/09/19 13:08:49;;;;;;;5.45;1.83;;;;;;;;;;5045255;28;20052;-61
2023/09/19 13:11:21;;;;;;;4.22;1.50;;;;;;;;;;5044497;28;20072;-60
2023/09/19 13:13:54;;;;;;;4.78;1.48;;;;;;;;;;5045649;28;20060;-61
2023/09/19 13:16:25;;;;;;;6.90;1.63;;;;;;;;;;5045704;28;20120;-61
2023/09/19 13:18:52;;;;;;;5.75;2.08;;;;;;;;;;5043941;28;20059;-61
2023/09/19 13:21:27;;;;;;;6.82;1.60;;;;;;;;;;5046164;28;20049;-60
2023/09/19 13:23:59;;;;;;;3.72;1.25;;;;;;;;;;5037451;28;20033;-60
2023/09/19 13:26:26;;;;;;;11.98;2.55;;;;;;;;;;5044838;28;20641;-61
2023/09/19 13:28:52;;;;;;;2.78;0.90;;;;;;;;;;5053574;28;20084;-61
2023/09/19 13:31:18;;;;;;;2.88;1.10;;;;;;;;;;5050684;28;20576;-59
2023/09/19 13:33:47;;;;;;;5.55;1.50;;;;;;;;;;5045702;28;20040;-60
2023/09/19 13:36:14;;;;;;;3.35;1.45;;;;;;;;;;5043638;28;20044;-60
2023/09/19 13:38:42;;;;;;;2.97;0.85;;;;;;;;;;5047168;28;20084;-60
2023/09/19 13:41:10;;;;;;;3.80;1.38;;;;;;;;;;5046743;28;20092;-60
2023/09/19 13:43:36;;;;;;;5.45;1.80;;;;;;;;;;5048112;28;20049;-60
2023/09/19 13:46:02;;;;;;;5.75;1.80;;;;;;;;;;5051880;28;20052;-60
2023/09/19 13:48:29;;;;;;;1.90;1.00;;;;;;;;;;5053713;28;20496;-59
2023/09/19 13:50:56;;;;;;;8.30;1.60;;;;;;;;;;5051228;28;20049;-59
2023/09/19 13:53:22;;;;;;;4.00;1.27;;;;;;;;;;5048546;28;20066;-60
2023/09/19 13:55:48;;;;;;;5.38;1.15;;;;;;;;;;5048809;28;20091;-60
2023/09/19 13:58:14;;;;;;;2.20;0.90;;;;;;;;;;5047683;28;20080;-60
2023/09/19 14:00:41;;;;;;;3.92;1.40;;;;;;;;;;5046861;28;20082;-60
2023/09/19 14:03:07;;;;;;;3.72;1.15;;;;;;;;;;5046577;28;20521;-60
2023/09/19 14:05:33;;;;;;;7.57;1.42;;;;;;;;;;5045020;28;20068;-60
2023/09/19 14:07:59;;;;;;;10.95;1.70;;;;;;;;;;5046406;28;20045;-60
2023/09/19 14:10:31;;;;;;;2.95;1.35;;;;;;;;;;5048233;28;20041;-60
2023/09/19 14:13:00;;;;;;;6.18;1.58;;;;;;;;;;5046673;28;20053;-60
2023/09/19 14:15:30;;;;;;;7.63;1.40;;;;;;;;;;5046035;28;20044;-59
2023/09/19 14:18:00;;;;;;;7.22;1.90;;;;;;;;;;5050602;28;20088;-60
2023/09/19 14:20:26;;;;;;;2.95;1.60;;;;;;;;;;5047844;28;20501;-60
2023/09/19 14:22:55;;;;;;;4.32;1.80;;;;;;;;;;5051777;28;20049;-60
2023/09/19 14:25:22;;;;;;;5.47;1.23;;;;;;;;;;5041974;28;20086;-60
2023/09/19 14:27:48;;;;;;;3.58;1.60;;;;;;;;;;5048359;28;20893;-60
2023/09/19 14:30:14;;;;;;;5.07;1.48;;;;;;;;;;5048039;28;20040;-60
2023/09/19 14:32:40;;;;;;;4.95;1.48;;;;;;;;;;5060148;28;20048;-60
2023/09/19 14:35:07;;;;;;;5.07;1.33;;;;;;;;;;5047648;28;20124;-60
2023/09/19 14:37:33;;;;;;;6.30;1.70;;;;;;;;;;5057814;28;20446;-59
2023/09/19 14:39:59;;;;;;;4.53;1.20;;;;;;;;;;5048678;28;20049;-60
2023/09/19 14:42:26;;;;;;;7.60;2.15;;;;;;;;;;5057453;28;20045;-60
2023/09/19 14:44:52;;;;;;;3.13;1.63;;;;;;;;;;5050225;28;20056;-60
2023/09/19 14:47:18;;;;;;;6.45;1.73;;;;;;;;;;5047026;28;20069;-60
2023/09/19 14:49:44;;;;;;;2.10;1.23;;;;;;;;;;5046359;28;20056;-59
2023/09/19 14:52:12;;;;;;;6.18;1.73;;;;;;;;;;5050146;28;20449;-60
2023/09/19 14:54:41;;;;;;;5.60;1.70;;;;;;;;;;5049393;28;20049;-60
2023/09/19 14:57:08;;;;;;;3.78;1.35;;;;;;;;;;5060971;28;20579;-60
2023/09/19 14:59:37;;;;;;;6.80;1.48;;;;;;;;;;5048437;28;20032;-58